Terminal Aerodrome Forecast
Issued by NWS Detroit/Pontiac, MI

Home | Current Version | Previous Version | Text Only | Print | Product List | Glossary On
Versions: 1 2 3 4 5 6 7 8 9 10 11 12 13
417
FTUS43 KDTX 282321
TAFFNT
TAF
KFNT 282321Z 2900/2924 16007KT P6SM SCT045 OVC100
      TEMPO 2900/2902 6SM -SHRA SCT035 OVC070
     FM290400 22012KT P6SM SCT080 OVC120 WS015/24045KT
      TEMPO 2908/2912 6SM -SHRA BKN060 OVC080
     FM291300 22014G24KT P6SM SCT040 BKN150
     FM291700 24016G26KT P6SM BKN045 PROB30 2921/2924 3SM TSRA
      OVC035CB=

USA.gov is the U.S. government's official web portal to all federal, state and local government web resources and services.